Time;durP1;ratioP1;P1;durP2;ratioP2;P2;SDS_P1;SDS_P2;PMS_P1;PMS_P2;Temp;Humidity;BMP_temperature;BMP_pressure;BME280_temperature;BME280_humidity;BME280_pressure;Samples;Min_cycle;Max_cycle;Signal;HPM_P1;HPM_P2
2024/01/02 00:02:24;;;;;;;9.20;2.30;;;6.00;99.90;;;;;;5103728;27;20101;-68
2024/01/02 00:04:50;;;;;;;10.05;2.35;;;6.00;99.90;;;;;;5141327;27;20130;-68
2024/01/02 00:07:16;;;;;;;10.68;2.70;;;5.90;99.90;;;;;;5105509;27;20035;-68
2024/01/02 00:09:42;;;;;;;11.20;2.15;;;6.00;99.90;;;;;;5105199;27;20047;-68
2024/01/02 00:12:07;;;;;;;8.30;2.30;;;6.00;99.90;;;;;;5110160;27;20027;-68
2024/01/02 00:14:33;;;;;;;8.57;1.98;;;6.00;99.90;;;;;;5106013;28;20047;-68
2024/01/02 00:16:59;;;;;;;10.70;1.90;;;6.10;99.90;;;;;;5105705;28;20028;-68
2024/01/02 00:19:28;;;;;;;9.07;1.95;;;6.10;99.90;;;;;;5102609;28;20036;-68
2024/01/02 00:21:53;;;;;;;7.88;1.98;;;6.10;99.90;;;;;;5104319;27;20080;-68
2024/01/02 00:24:19;;;;;;;10.10;1.90;;;6.10;99.90;;;;;;5138120;27;20072;-68
2024/01/02 00:26:44;;;;;;;8.30;2.22;;;6.10;99.90;;;;;;5105145;27;20043;-68
2024/01/02 00:29:10;;;;;;;11.30;1.80;;;6.10;99.90;;;;;;5103050;28;20047;-68
2024/01/02 00:31:36;;;;;;;11.52;2.25;;;6.10;99.90;;;;;;5101340;28;20040;-68
2024/01/02 00:34:01;;;;;;;13.93;1.90;;;6.10;99.90;;;;;;5104138;28;20056;-68
2024/01/02 00:36:27;;;;;;;10.40;1.80;;;6.10;99.90;;;;;;5135287;27;20066;-68
2024/01/02 00:38:52;;;;;;;8.65;1.38;;;6.10;99.90;;;;;;5105209;27;20043;-68
2024/01/02 00:41:18;;;;;;;14.73;1.77;;;6.10;99.90;;;;;;5136561;27;20052;-68
2024/01/02 00:43:43;;;;;;;9.95;2.00;;;6.20;99.90;;;;;;5104398;27;20046;-68
2024/01/02 00:46:09;;;;;;;11.43;2.15;;;6.20;99.90;;;;;;5105419;28;20039;-68
2024/01/02 00:48:35;;;;;;;6.32;1.70;;;6.20;99.90;;;;;;5106233;28;20046;-68
2024/01/02 00:51:02;;;;;;;14.65;2.33;;;6.30;99.90;;;;;;5135094;27;20453;-68
2024/01/02 00:53:27;;;;;;;11.40;2.45;;;6.20;99.90;;;;;;5103333;28;20035;-68
2024/01/02 00:55:53;;;;;;;8.40;1.42;;;6.30;99.90;;;;;;5104468;27;20393;-68
2024/01/02 00:58:18;;;;;;;10.32;2.60;;;6.30;99.90;;;;;;5138389;27;20040;-68
2024/01/02 01:00:44;;;;;;;8.88;2.33;;;6.30;99.90;;;;;;5135013;27;20075;-68
2024/01/02 01:03:10;;;;;;;8.68;1.65;;;6.30;99.90;;;;;;5132995;27;20047;-68
2024/01/02 01:05:35;;;;;;;10.35;1.50;;;6.40;99.90;;;;;;5102623;28;20074;-68
2024/01/02 01:08:01;;;;;;;10.65;1.60;;;6.40;99.90;;;;;;5103713;28;20584;-68
2024/01/02 01:10:27;;;;;;;11.65;2.05;;;6.30;99.90;;;;;;5101829;27;20072;-68
2024/01/02 01:12:55;;;;;;;14.05;2.60;;;6.40;99.90;;;;;;5104525;28;20435;-68
2024/01/02 01:15:21;;;;;;;11.30;2.35;;;6.80;99.90;;;;;;5106478;28;20077;-68
2024/01/02 01:17:46;;;;;;;9.35;1.55;;;6.40;99.90;;;;;;5102985;28;20074;-68
2024/01/02 01:20:12;;;;;;;12.35;1.77;;;6.40;99.90;;;;;;5099244;28;20038;-68
2024/01/02 01:22:38;;;;;;;12.70;2.20;;;6.40;99.90;;;;;;5101660;28;20401;-68
2024/01/02 01:25:03;;;;;;;14.15;2.95;;;6.40;99.90;;;;;;5105001;28;20067;-68
2024/01/02 01:27:29;;;;;;;11.07;1.60;;;6.40;99.90;;;;;;5105787;28;20044;-68
2024/01/02 01:29:55;;;;;;;11.48;1.73;;;6.30;99.90;;;;;;5101866;28;20507;-68
2024/01/02 01:32:20;;;;;;;14.13;1.77;;;6.40;99.90;;;;;;5102548;28;20040;-68
2024/01/02 01:34:46;;;;;;;10.07;1.48;;;6.40;99.90;;;;;;5120604;27;20074;-68
2024/01/02 01:37:11;;;;;;;8.30;2.00;;;6.50;99.90;;;;;;5101730;28;20081;-68
2024/01/02 01:39:37;;;;;;;11.95;2.60;;;6.40;99.90;;;;;;5104689;28;20524;-68
2024/01/02 01:42:03;;;;;;;11.55;1.58;;;6.40;99.90;;;;;;5104698;28;20027;-68
2024/01/02 01:44:29;;;;;;;15.52;2.17;;;6.60;99.90;;;;;;5103643;27;20048;-68
2024/01/02 01:46:55;;;;;;;9.77;2.10;;;6.50;99.90;;;;;;5106567;28;20051;-68
2024/01/02 01:49:21;;;;;;;12.45;3.00;;;6.50;99.90;;;;;;5101660;28;20109;-68
2024/01/02 01:51:47;;;;;;;13.90;2.75;;;6.50;99.90;;;;;;5105933;27;20032;-68
2024/01/02 01:54:14;;;;;;;12.73;1.60;;;6.80;99.90;;;;;;5106980;28;20397;-68
2024/01/02 01:56:42;;;;;;;12.23;2.05;;;6.60;99.90;;;;;;5101791;28;20058;-68
2024/01/02 01:59:08;;;;;;;13.75;2.72;;;6.50;99.90;;;;;;5105623;28;20031;-68
2024/01/02 02:01:34;;;;;;;10.00;2.58;;;6.50;99.90;;;;;;5099308;28;20063;-68
2024/01/02 02:04:01;;;;;;;12.13;3.03;;;6.60;99.90;;;;;;5104447;28;20054;-68
2024/01/02 02:06:27;;;;;;;9.25;3.20;;;6.60;99.90;;;;;;5134608;27;20043;-68
2024/01/02 02:08:53;;;;;;;12.13;2.80;;;6.60;99.90;;;;;;5102511;27;20043;-68
2024/01/02 02:11:20;;;;;;;12.00;2.83;;;6.60;99.90;;;;;;5100492;28;20040;-68
2024/01/02 02:13:46;;;;;;;16.90;3.53;;;6.60;99.90;;;;;;5101255;27;20135;-68
2024/01/02 02:16:13;;;;;;;10.20;3.63;;;7.10;99.90;;;;;;5103290;28;20097;-68
2024/01/02 02:18:38;;;;;;;15.55;3.40;;;6.60;99.90;;;;;;5135201;27;20044;-68
2024/01/02 02:21:04;;;;;;;13.63;4.03;;;6.70;99.90;;;;;;5131363;27;20036;-68
2024/01/02 02:23:29;;;;;;;9.43;2.97;;;6.70;99.90;;;;;;5102120;28;20047;-68
2024/01/02 02:25:55;;;;;;;12.93;3.53;;;6.70;99.90;;;;;;5098647;28;20067;-68
2024/01/02 02:28:21;;;;;;;12.20;3.40;;;6.60;99.90;;;;;;5101076;28;20126;-68
2024/01/02 02:30:47;;;;;;;8.35;2.97;;;6.70;99.90;;;;;;5102349;28;20047;-68
2024/01/02 02:33:12;;;;;;;14.18;3.53;;;6.70;99.90;;;;;;5130897;27;20058;-68
2024/01/02 02:35:38;;;;;;;9.93;3.28;;;6.70;99.90;;;;;;5099902;28;20036;-68
2024/01/02 02:38:03;;;;;;;8.25;3.35;;;6.70;99.90;;;;;;5102720;28;20482;-68
2024/01/02 02:40:29;;;;;;;10.43;3.33;;;6.80;99.90;;;;;;5102645;28;20054;-68
2024/01/02 02:42:54;;;;;;;14.82;3.63;;;6.70;99.90;;;;;;5099536;28;20050;-68
2024/01/02 02:45:20;;;;;;;11.75;4.25;;;6.70;99.90;;;;;;5101609;28;20132;-68
2024/01/02 02:47:46;;;;;;;9.73;4.07;;;6.70;99.90;;;;;;5102184;28;20038;-68
2024/01/02 02:50:11;;;;;;;12.10;3.00;;;6.70;99.90;;;;;;5102241;28;20063;-69
2024/01/02 02:52:37;;;;;;;10.23;4.50;;;6.70;99.90;;;;;;5103821;28;20031;-68
2024/01/02 02:55:03;;;;;;;12.23;3.47;;;6.60;99.90;;;;;;5104395;28;20043;-68
2024/01/02 02:57:29;;;;;;;10.23;3.30;;;6.70;99.90;;;;;;5103025;28;20121;-68
2024/01/02 02:59:54;;;;;;;11.43;3.42;;;6.70;99.90;;;;;;5104427;28;20074;-68
2024/01/02 03:02:20;;;;;;;9.48;3.22;;;6.70;99.90;;;;;;5098123;28;20040;-68
2024/01/02 03:04:47;;;;;;;9.43;3.03;;;6.70;99.90;;;;;;5102144;28;20573;-68
2024/01/02 03:07:13;;;;;;;16.73;3.30;;;6.70;99.90;;;;;;5105095;27;20043;-68
2024/01/02 03:09:43;;;;;;;10.80;2.58;;;6.70;99.90;;;;;;5141259;27;20069;-68
2024/01/02 03:12:09;;;;;;;8.05;3.00;;;6.90;99.90;;;;;;5107793;28;20464;-68
2024/01/02 03:14:35;;;;;;;9.80;2.75;;;6.70;99.90;;;;;;5106240;27;20431;-68
2024/01/02 03:17:01;;;;;;;7.15;2.50;;;6.70;99.90;;;;;;5104191;28;20074;-68
2024/01/02 03:19:26;;;;;;;7.63;2.22;;;6.70;99.90;;;;;;5139197;27;20091;-68
2024/01/02 03:21:52;;;;;;;8.10;2.25;;;6.70;99.90;;;;;;5104719;27;20040;-68
2024/01/02 03:24:17;;;;;;;6.28;1.88;;;6.70;99.90;;;;;;5104953;27;20053;-68
2024/01/02 03:26:43;;;;;;;6.43;1.90;;;6.80;99.90;;;;;;5106883;28;20501;-68
2024/01/02 03:29:09;;;;;;;9.43;2.20;;;6.80;99.90;;;;;;5140282;27;20035;-68
2024/01/02 03:31:34;;;;;;;8.57;2.42;;;6.80;99.90;;;;;;5120234;27;20044;-68
2024/01/02 03:34:01;;;;;;;5.43;1.83;;;6.80;99.90;;;;;;5125981;27;20047;-68
2024/01/02 03:36:26;;;;;;;5.90;1.85;;;6.80;99.90;;;;;;5105954;28;20036;-67
2024/01/02 03:38:52;;;;;;;5.07;1.70;;;6.80;99.90;;;;;;5101472;27;20032;-68
2024/01/02 03:41:18;;;;;;;6.90;1.88;;;6.80;99.90;;;;;;5106101;28;20039;-68
2024/01/02 03:43:44;;;;;;;8.88;2.17;;;6.80;99.90;;;;;;5140454;27;20044;-68
2024/01/02 03:46:10;;;;;;;10.77;2.13;;;6.80;99.90;;;;;;5104297;27;21076;-68
2024/01/02 03:48:36;;;;;;;6.45;2.10;;;6.80;99.90;;;;;;5105325;27;20064;-68
2024/01/02 03:51:02;;;;;;;7.00;2.20;;;6.80;99.90;;;;;;5105300;27;20075;-68
2024/01/02 03:53:28;;;;;;;6.47;2.00;;;6.80;99.90;;;;;;5139373;27;20051;-68
2024/01/02 03:55:58;;;;;;;7.30;2.72;;;6.80;99.90;;;;;;5104577;27;20118;-68
2024/01/02 03:58:24;;;;;;;8.00;2.58;;;6.70;99.90;;;;;;5103221;27;20042;-68
2024/01/02 04:00:51;;;;;;;8.23;2.50;;;6.80;99.90;;;;;;5104870;28;20040;-68
2024/01/02 04:03:17;;;;;;;7.03;2.35;;;6.70;99.90;;;;;;5105877;27;20126;-68
2024/01/02 04:05:42;;;;;;;12.40;2.10;;;6.80;99.90;;;;;;5109063;27;20122;-69
2024/01/02 04:08:08;;;;;;;4.40;1.92;;;6.80;99.90;;;;;;5105001;27;20509;-68
2024/01/02 04:10:34;;;;;;;6.53;1.67;;;6.70;99.90;;;;;;5105374;27;20051;-68
2024/01/02 04:13:00;;;;;;;8.60;2.35;;;6.70;99.90;;;;;;5105589;27;20391;-69
2024/01/02 04:15:26;;;;;;;6.30;1.83;;;6.70;99.90;;;;;;5103783;27;20032;-68
2024/01/02 04:17:52;;;;;;;6.22;2.47;;;6.70;99.90;;;;;;5104087;27;20035;-68
2024/01/02 04:20:17;;;;;;;3.55;1.38;;;6.80;99.90;;;;;;5104142;27;20083;-68
2024/01/02 04:22:43;;;;;;;5.78;1.45;;;6.90;99.90;;;;;;5104393;27;20496;-68
2024/01/02 04:25:09;;;;;;;4.60;1.48;;;6.80;99.90;;;;;;5101865;28;20101;-68
2024/01/02 04:27:35;;;;;;;5.63;1.40;;;6.80;99.90;;;;;;5104487;28;20096;-68
2024/01/02 04:30:00;;;;;;;4.40;1.33;;;6.80;99.90;;;;;;5103416;27;20036;-68
2024/01/02 04:32:26;;;;;;;3.75;1.25;;;6.80;99.90;;;;;;5103878;27;20090;-68
2024/01/02 04:34:51;;;;;;;3.65;1.30;;;6.80;99.90;;;;;;5105653;27;20039;-68
2024/01/02 04:37:17;;;;;;;2.72;1.02;;;6.80;99.90;;;;;;5102160;28;20563;-68
2024/01/02 04:39:43;;;;;;;3.60;1.20;;;6.80;99.90;;;;;;5100824;27;20040;-68
2024/01/02 04:42:09;;;;;;;7.15;1.20;;;6.80;99.90;;;;;;5137684;27;20482;-68
2024/01/02 04:44:35;;;;;;;5.90;0.90;;;6.80;99.90;;;;;;5103748;27;20401;-68
2024/01/02 04:47:02;;;;;;;3.22;0.80;;;7.30;99.90;;;;;;5105099;27;20047;-68
2024/01/02 04:49:28;;;;;;;4.82;1.10;;;6.80;99.90;;;;;;5102275;28;20032;-68
2024/01/02 04:51:54;;;;;;;4.70;0.93;;;6.80;99.90;;;;;;5100954;28;20035;-68
2024/01/02 04:54:20;;;;;;;5.60;0.90;;;6.90;99.90;;;;;;5136576;27;20108;-68
2024/01/02 04:56:46;;;;;;;3.30;0.70;;;6.80;99.90;;;;;;5104947;27;20490;-68
2024/01/02 04:59:11;;;;;;;2.15;0.70;;;6.80;99.90;;;;;;5104929;27;20031;-68
2024/01/02 05:01:37;;;;;;;4.80;0.82;;;6.80;99.90;;;;;;5135846;27;20176;-68
2024/01/02 05:04:04;;;;;;;2.28;0.60;;;6.80;99.90;;;;;;5104396;27;20043;-68
2024/01/02 05:06:30;;;;;;;5.32;0.70;;;6.80;99.90;;;;;;5105643;27;20423;-68
2024/01/02 05:08:56;;;;;;;4.05;0.70;;;6.80;99.90;;;;;;5104493;28;20039;-68
2024/01/02 05:11:22;;;;;;;2.42;0.60;;;6.80;99.90;;;;;;5134090;27;20040;-68
2024/01/02 05:13:48;;;;;;;3.72;0.73;;;6.80;99.90;;;;;;5135539;27;20075;-68
2024/01/02 05:16:13;;;;;;;2.28;0.52;;;6.80;99.90;;;;;;5104520;28;20067;-68
2024/01/02 05:18:39;;;;;;;3.72;0.52;;;6.80;99.90;;;;;;5138213;27;20381;-68
2024/01/02 05:21:04;;;;;;;3.17;0.93;;;6.80;99.90;;;;;;5104686;28;20462;-68
2024/01/02 05:23:30;;;;;;;4.57;0.70;;;6.80;99.90;;;;;;5100344;28;20040;-68
2024/01/02 05:25:55;;;;;;;2.45;0.60;;;6.80;99.90;;;;;;5119749;27;20520;-68
2024/01/02 05:28:21;;;;;;;4.72;0.60;;;6.80;99.90;;;;;;5103717;28;20092;-68
2024/01/02 05:30:47;;;;;;;2.80;0.77;;;6.80;99.90;;;;;;5106442;27;20027;-68
2024/01/02 05:33:12;;;;;;;1.10;0.60;;;6.80;99.90;;;;;;5101014;28;20044;-68
2024/01/02 05:35:38;;;;;;;2.58;0.60;;;6.80;99.90;;;;;;5099048;27;20535;-68
2024/01/02 05:38:04;;;;;;;4.68;1.00;;;6.80;99.90;;;;;;5102445;27;20424;-68
2024/01/02 05:40:29;;;;;;;2.60;0.73;;;6.70;99.90;;;;;;5103402;28;20040;-68
2024/01/02 05:42:55;;;;;;;1.10;0.50;;;6.80;99.90;;;;;;5103219;28;20410;-68
2024/01/02 05:45:20;;;;;;;2.60;0.60;;;6.70;99.90;;;;;;5099341;28;20044;-68
2024/01/02 05:47:46;;;;;;;3.38;0.70;;;6.70;99.90;;;;;;5098945;27;20047;-69
2024/01/02 05:50:12;;;;;;;1.98;0.60;;;6.80;99.90;;;;;;5103103;28;20035;-68
2024/01/02 05:52:39;;;;;;;3.15;0.63;;;6.80;99.90;;;;;;5101473;28;20402;-68
2024/01/02 05:55:05;;;;;;;1.00;0.60;;;6.80;99.90;;;;;;5132945;27;20051;-68
2024/01/02 05:57:30;;;;;;;1.38;0.60;;;6.80;99.90;;;;;;5135830;27;20044;-68
2024/01/02 05:59:56;;;;;;;1.48;0.50;;;6.80;99.90;;;;;;5098794;27;20798;-68
2024/01/02 06:02:21;;;;;;;2.33;0.60;;;6.70;99.90;;;;;;5104529;28;20044;-69
2024/01/02 06:04:47;;;;;;;1.65;0.50;;;6.80;99.90;;;;;;5099978;27;20051;-69
2024/01/02 06:07:12;;;;;;;1.73;0.60;;;6.80;99.90;;;;;;5097422;28;20119;-68
2024/01/02 06:09:38;;;;;;;0.98;0.63;;;6.90;99.90;;;;;;5103061;28;20027;-68
2024/01/02 06:12:04;;;;;;;1.20;0.40;;;6.80;99.90;;;;;;5104575;28;20657;-68
2024/01/02 06:14:31;;;;;;;2.28;0.60;;;6.80;99.90;;;;;;5135710;27;20047;-68
2024/01/02 06:16:57;;;;;;;1.48;0.40;;;7.10;99.90;;;;;;5099417;28;20036;-68
2024/01/02 06:19:23;;;;;;;0.88;0.57;;;6.90;99.90;;;;;;5135849;27;20518;-69
2024/01/02 06:21:48;;;;;;;0.93;0.80;;;6.90;99.90;;;;;;5102721;28;20075;-69
2024/01/02 06:24:14;;;;;;;1.00;0.60;;;6.90;99.90;;;;;;5135397;27;20398;-68
2024/01/02 06:26:40;;;;;;;1.23;0.50;;;6.90;99.90;;;;;;5136008;27;20107;-68
2024/01/02 06:29:06;;;;;;;1.55;0.60;;;6.90;99.90;;;;;;5136891;27;20039;-69
2024/01/02 06:31:31;;;;;;;2.30;0.80;;;7.00;99.90;;;;;;5099664;28;20039;-68
2024/01/02 06:33:57;;;;;;;0.70;0.45;;;6.90;99.90;;;;;;5136539;27;20059;-68
2024/01/02 06:36:23;;;;;;;2.15;0.70;;;7.00;99.90;;;;;;5105171;27;20040;-68
2024/01/02 06:38:49;;;;;;;1.20;0.55;;;7.00;99.90;;;;;;5104684;28;20114;-68
2024/01/02 06:41:14;;;;;;;0.40;0.40;;;7.00;99.90;;;;;;5103036;28;20063;-68
2024/01/02 06:43:40;;;;;;;1.80;0.70;;;7.10;99.90;;;;;;5100373;28;20127;-68
2024/01/02 06:46:05;;;;;;;0.88;0.52;;;7.60;99.90;;;;;;5103162;28;20035;-68
2024/01/02 06:48:31;;;;;;;1.52;0.80;;;7.10;99.90;;;;;;5136027;27;20048;-68
2024/01/02 06:50:57;;;;;;;3.70;0.70;;;7.20;99.90;;;;;;5098981;27;20584;-68
2024/01/02 06:53:22;;;;;;;0.90;0.82;;;7.20;99.90;;;;;;5103041;27;20399;-68
2024/01/02 06:55:48;;;;;;;1.17;1.00;;;7.20;99.90;;;;;;5103475;28;20040;-68
2024/01/02 06:58:13;;;;;;;1.30;1.20;;;7.20;99.90;;;;;;5104237;28;20040;-68
2024/01/02 07:00:39;;;;;;;3.08;1.10;;;7.30;99.90;;;;;;5103109;28;20050;-68
2024/01/02 07:03:05;;;;;;;1.35;1.25;;;7.30;99.90;;;;;;5104250;28;20047;-68
2024/01/02 07:05:30;;;;;;;1.30;1.08;;;7.30;99.90;;;;;;5118075;27;20035;-68
2024/01/02 07:07:56;;;;;;;1.60;1.50;;;7.30;99.90;;;;;;5101974;28;20031;-68
2024/01/02 07:10:24;;;;;;;1.73;1.52;;;7.40;99.90;;;;;;5100966;28;20047;-68
2024/01/02 07:12:50;;;;;;;1.75;1.65;;;7.40;99.90;;;;;;5101523;28;20394;-68
2024/01/02 07:15:16;;;;;;;1.63;1.52;;;7.40;99.90;;;;;;5100423;28;20036;-68
2024/01/02 07:17:42;;;;;;;3.30;1.85;;;7.40;99.90;;;;;;5102090;28;20390;-68
2024/01/02 07:20:09;;;;;;;2.33;1.80;;;7.40;99.90;;;;;;5102165;28;20041;-68
2024/01/02 07:22:34;;;;;;;1.83;1.73;;;7.50;99.90;;;;;;5098431;28;20509;-68
2024/01/02 07:25:00;;;;;;;2.00;1.80;;;7.50;99.90;;;;;;5132876;27;20040;-68
2024/01/02 07:27:26;;;;;;;2.78;1.52;;;7.60;99.90;;;;;;5135616;27;20497;-68
2024/01/02 07:29:51;;;;;;;3.15;1.70;;;7.60;99.90;;;;;;5102036;28;20030;-68
2024/01/02 07:32:18;;;;;;;2.20;1.50;;;7.70;99.90;;;;;;5107972;28;20499;-68
2024/01/02 07:34:44;;;;;;;1.73;1.63;;;7.70;99.90;;;;;;5100734;28;20044;-68
2024/01/02 07:37:11;;;;;;;2.30;2.10;;;8.00;99.90;;;;;;5137364;27;20576;-68
2024/01/02 07:39:37;;;;;;;2.40;1.77;;;7.80;99.90;;;;;;5103712;28;20122;-68
2024/01/02 07:42:02;;;;;;;1.40;1.30;;;7.80;99.90;;;;;;5102714;28;20044;-68
2024/01/02 07:44:28;;;;;;;1.40;1.30;;;7.80;99.90;;;;;;5135760;27;20081;-68
2024/01/02 07:46:53;;;;;;;1.45;1.10;;;7.90;99.90;;;;;;5103549;28;20035;-68
2024/01/02 07:49:19;;;;;;;1.92;1.23;;;8.00;99.90;;;;;;5098610;28;20065;-68
2024/01/02 07:51:45;;;;;;;1.67;1.17;;;8.00;99.90;;;;;;5103608;27;20034;-71
2024/01/02 07:54:10;;;;;;;2.38;1.70;;;8.00;99.90;;;;;;5100963;28;20505;-68
2024/01/02 07:56:36;;;;;;;4.55;1.45;;;8.20;99.90;;;;;;5104977;28;20072;-69
2024/01/02 07:59:02;;;;;;;4.47;2.42;;;8.20;99.90;;;;;;5102340;27;20092;-66
2024/01/02 08:01:28;;;;;;;3.28;2.35;;;8.20;99.90;;;;;;5106078;28;20049;-71
2024/01/02 08:03:53;;;;;;;5.55;2.78;;;8.30;99.90;;;;;;5103216;28;20039;-69
2024/01/02 08:06:19;;;;;;;7.07;2.92;;;8.70;99.90;;;;;;5102113;28;20059;-68
2024/01/02 08:08:45;;;;;;;11.02;4.38;;;8.60;99.90;;;;;;5104803;27;20062;-69
2024/01/02 08:11:10;;;;;;;9.40;3.85;;;8.70;99.90;;;;;;5107640;27;20032;-68
2024/01/02 08:13:36;;;;;;;5.70;3.70;;;8.80;99.90;;;;;;5139064;27;20057;-69
2024/01/02 08:16:04;;;;;;;6.57;3.50;;;8.90;99.90;;;;;;5137919;27;20039;-69
2024/01/02 08:18:31;;;;;;;7.70;3.95;;;9.00;99.90;;;;;;5106905;27;20085;-68
2024/01/02 08:20:57;;;;;;;10.32;4.20;;;8.90;99.90;;;;;;5102957;27;20149;-68
2024/01/02 08:23:24;;;;;;;9.73;3.78;;;8.90;99.90;;;;;;5103648;28;20062;-68
2024/01/02 08:25:49;;;;;;;9.93;3.75;;;9.00;99.90;;;;;;5137484;27;20035;-68
2024/01/02 08:28:15;;;;;;;15.88;4.07;;;9.10;99.90;;;;;;5100589;28;20085;-69
2024/01/02 08:30:41;;;;;;;15.75;3.72;;;9.10;99.90;;;;;;5105118;27;20035;-67
2024/01/02 08:33:06;;;;;;;10.63;3.58;;;9.30;99.90;;;;;;5102503;28;20040;-68
2024/01/02 08:35:33;;;;;;;13.07;3.30;;;9.30;99.90;;;;;;5105550;28;20076;-68
2024/01/02 08:37:59;;;;;;;15.38;4.03;;;9.30;99.90;;;;;;5135376;27;20043;-67
2024/01/02 08:40:25;;;;;;;10.40;2.90;;;9.40;99.90;;;;;;5135957;27;20397;-68
2024/01/02 08:42:51;;;;;;;12.90;2.13;;;9.60;99.90;;;;;;5133084;27;20044;-68
2024/01/02 08:45:16;;;;;;;17.05;2.97;;;9.40;99.90;;;;;;5101052;28;20043;-67
2024/01/02 08:47:42;;;;;;;21.67;1.88;;;9.50;99.90;;;;;;5102507;27;20508;-68
2024/01/02 08:50:08;;;;;;;19.45;2.03;;;9.50;99.90;;;;;;5105050;28;20062;-68
2024/01/02 08:52:35;;;;;;;14.48;1.92;;;9.50;99.90;;;;;;5134154;27;20052;-68
2024/01/02 08:55:01;;;;;;;17.30;2.38;;;9.60;99.90;;;;;;5106015;27;21009;-68
2024/01/02 08:57:27;;;;;;;13.63;1.88;;;9.60;99.90;;;;;;5101173;27;20051;-68
2024/01/02 08:59:52;;;;;;;18.35;1.90;;;9.60;99.90;;;;;;5101418;27;20028;-68
2024/01/02 09:02:18;;;;;;;16.25;2.38;;;9.70;99.90;;;;;;5131840;27;20048;-69
2024/01/02 09:04:43;;;;;;;15.95;2.40;;;9.70;99.90;;;;;;5103719;27;20039;-68
2024/01/02 09:07:09;;;;;;;18.55;2.38;;;9.70;99.90;;;;;;5134997;27;20032;-68
2024/01/02 09:09:35;;;;;;;17.30;2.97;;;9.70;99.90;;;;;;5099903;27;20043;-68
2024/01/02 09:12:02;;;;;;;15.82;2.85;;;9.80;99.90;;;;;;5102850;28;20034;-68
2024/01/02 09:14:28;;;;;;;17.73;2.50;;;9.80;99.90;;;;;;5100962;27;20490;-68
2024/01/02 09:16:54;;;;;;;21.55;3.25;;;9.90;99.90;;;;;;5100231;27;20040;-68
2024/01/02 09:19:20;;;;;;;22.55;3.50;;;9.90;99.90;;;;;;5104499;27;20039;-68
2024/01/02 09:21:46;;;;;;;17.88;2.70;;;10.20;99.90;;;;;;5135826;27;20563;-68
2024/01/02 09:24:13;;;;;;;22.92;3.17;;;10.00;99.90;;;;;;5104429;28;20180;-69
2024/01/02 09:26:44;;;;;;;15.45;2.50;;;10.00;99.90;;;;;;5100876;28;20068;-66
2024/01/02 09:29:10;;;;;;;15.90;2.28;;;10.00;99.90;;;;;;5100693;27;20566;-69
2024/01/02 09:31:35;;;;;;;22.30;2.92;;;10.40;99.90;;;;;;5101320;28;20068;-68
2024/01/02 09:34:01;;;;;;;15.57;2.60;;;10.30;99.90;;;;;;5098342;27;20490;-68
2024/01/02 09:36:29;;;;;;;18.10;2.63;;;10.10;99.90;;;;;;5100422;27;20035;-68
2024/01/02 09:38:55;;;;;;;17.40;2.28;;;10.20;99.90;;;;;;5103405;27;20043;-68
2024/01/02 09:41:54;;;;;;;13.95;2.30;;;10.20;99.90;;;;;;5102767;27;20047;-67
2024/01/02 09:44:48;;;;;;;24.88;2.92;;;10.30;99.90;;;;;;5100918;28;20048;-67
2024/01/02 09:47:37;;;;;;;17.67;2.90;;;10.20;99.90;;;;;;5103989;27;20068;-67
2024/01/02 09:50:27;;;;;;;14.75;2.30;;;10.30;99.90;;;;;;5133502;27;20046;-68
2024/01/02 09:52:56;;;;;;;14.30;2.28;;;10.40;99.90;;;;;;5101138;28;20066;-68
2024/01/02 09:55:35;;;;;;;21.17;2.97;;;10.40;99.90;;;;;;5134691;27;20367;-68
2024/01/02 09:58:12;;;;;;;15.88;2.17;;;10.40;99.90;;;;;;5107078;27;20044;-68
2024/01/02 10:01:03;;;;;;;14.77;3.38;;;10.40;99.90;;;;;;5103318;27;20575;-68
2024/01/02 10:04:06;;;;;;;17.38;2.28;;;10.40;99.90;;;;;;5131006;27;20062;-68
2024/01/02 10:06:53;;;;;;;18.15;2.78;;;10.40;99.90;;;;;;5132652;27;20038;-68
2024/01/02 10:09:41;;;;;;;14.65;1.92;;;10.40;99.90;;;;;;5101047;27;20039;-68
2024/01/02 10:12:45;;;;;;;15.10;2.17;;;10.50;99.90;;;;;;5134741;27;20074;-68
2024/01/02 10:15:23;;;;;;;15.88;2.67;;;10.40;99.90;;;;;;5083550;28;20478;-68
2024/01/02 10:18:26;;;;;;;12.00;2.08;;;10.50;99.90;;;;;;5100752;27;20047;-67
2024/01/02 10:21:03;;;;;;;13.48;2.17;;;10.60;99.90;;;;;;5099421;28;20126;-68
2024/01/02 10:23:41;;;;;;;13.55;2.25;;;10.60;99.90;;;;;;5135156;27;20039;-68
2024/01/02 10:26:09;;;;;;;10.90;2.00;;;10.60;99.90;;;;;;5099729;27;20132;-68
2024/01/02 10:28:37;;;;;;;12.55;2.97;;;10.60;99.90;;;;;;5102585;27;20104;-68
2024/01/02 10:31:51;;;;;;;18.23;3.22;;;10.60;99.90;;;;;;5100570;27;20051;-68
2024/01/02 10:34:37;;;;;;;12.73;2.47;;;10.70;99.90;;;;;;5095991;28;20051;-68
2024/01/02 10:37:06;;;;;;;15.07;2.08;;;10.70;99.90;;;;;;5104600;28;20045;-68
2024/01/02 10:39:44;;;;;;;13.63;2.65;;;10.70;99.90;;;;;;5100765;27;20397;-68
2024/01/02 10:42:44;;;;;;;17.95;3.53;;;9.90;99.90;;;;;;5089413;28;20043;-68
2024/01/02 10:45:25;;;;;;;17.13;2.63;;;10.70;99.90;;;;;;5085327;27;20059;-68
2024/01/02 10:48:17;;;;;;;13.77;1.92;;;10.70;99.90;;;;;;5101386;28;20042;-68
2024/01/02 10:51:10;;;;;;;15.02;2.20;;;10.70;99.90;;;;;;5098336;27;20085;-68
2024/01/02 10:53:51;;;;;;;17.13;2.75;;;10.80;99.90;;;;;;5100526;28;20056;-68
2024/01/02 10:56:52;;;;;;;12.07;2.28;;;10.80;99.90;;;;;;5135476;27;20468;-68
2024/01/02 10:59:56;;;;;;;16.52;2.50;;;10.80;99.90;;;;;;5133572;27;20607;-68
2024/01/02 11:02:37;;;;;;;18.58;2.58;;;10.80;99.90;;;;;;5100236;28;20050;-68
2024/01/02 11:05:30;;;;;;;15.63;2.53;;;10.80;99.90;;;;;;5098838;28;20050;-68
2024/01/02 11:08:18;;;;;;;24.77;4.07;;;10.80;99.90;;;;;;5100308;28;20047;-68
2024/01/02 11:11:00;;;;;;;13.30;2.63;;;10.90;99.90;;;;;;5131631;27;20036;-68
2024/01/02 11:13:27;;;;;;;16.90;2.80;;;11.20;99.90;;;;;;5098302;28;20044;-68
2024/01/02 11:16:02;;;;;;;12.05;2.15;;;10.90;99.90;;;;;;5102249;28;20071;-68
2024/01/02 11:18:32;;;;;;;17.13;2.17;;;11.00;99.90;;;;;;5100233;28;20047;-68
2024/01/02 11:21:19;;;;;;;20.20;3.45;;;10.90;99.90;;;;;;5098935;28;20055;-68
2024/01/02 11:23:49;;;;;;;15.40;2.47;;;10.90;99.90;;;;;;5098998;28;20036;-68
2024/01/02 11:26:23;;;;;;;14.13;2.97;;;11.00;99.90;;;;;;5100441;27;20035;-68
2024/01/02 11:28:51;;;;;;;13.48;2.22;;;11.00;99.90;;;;;;5103728;27;21009;-67
2024/01/02 11:31:18;;;;;;;17.73;3.55;;;10.90;99.90;;;;;;5104380;27;20554;-68
2024/01/02 11:34:31;;;;;;;14.68;2.10;;;11.00;99.90;;;;;;5136502;27;20047;-68
2024/01/02 11:37:17;;;;;;;15.90;4.07;;;11.00;99.90;;;;;;5012229;28;20049;-68
2024/01/02 11:40:17;;;;;;;14.15;2.72;;;11.00;99.90;;;;;;5111421;27;20426;-68
2024/01/02 11:42:48;;;;;;;20.10;3.42;;;11.00;99.90;;;;;;5105874;27;20051;-68
2024/01/02 11:45:20;;;;;;;17.00;2.97;;;10.90;99.90;;;;;;5102322;27;20086;-68
2024/01/02 11:48:02;;;;;;;21.13;3.63;;;10.90;99.90;;;;;;5137166;27;20051;-68
2024/01/02 11:50:38;;;;;;;17.35;3.55;;;10.90;99.90;;;;;;5108034;27;20185;-67
2024/01/02 11:53:14;;;;;;;17.52;4.60;;;10.90;99.90;;;;;;5105216;27;20058;-68
2024/01/02 11:55:55;;;;;;;20.00;3.75;;;10.90;99.90;;;;;;5101340;27;20047;-68
2024/01/02 11:58:40;;;;;;;26.75;4.22;;;11.00;99.90;;;;;;5102822;28;20040;-68
2024/01/02 12:01:28;;;;;;;23.23;5.93;;;10.90;99.90;;;;;;5098207;27;20051;-68
2024/01/02 12:04:16;;;;;;;23.75;4.95;;;10.90;99.90;;;;;;5102333;27;20177;-68
2024/01/02 12:07:10;;;;;;;18.35;3.20;;;10.90;99.90;;;;;;5104468;27;20133;-68
2024/01/02 12:09:41;;;;;;;22.55;5.35;;;10.90;99.90;;;;;;5101786;27;20058;-68
2024/01/02 12:12:44;;;;;;;25.05;4.18;;;10.90;99.90;;;;;;5086836;27;20031;-67
2024/01/02 12:15:13;;;;;;;20.75;5.18;;;10.90;99.90;;;;;;5100597;27;20119;-68
2024/01/02 12:18:01;;;;;;;23.02;4.70;;;10.90;99.90;;;;;;5103496;27;20040;-68
2024/01/02 12:20:33;;;;;;;24.92;5.20;;;10.90;99.90;;;;;;5102167;27;20466;-68
2024/01/02 12:22:59;;;;;;;23.52;4.50;;;10.90;99.90;;;;;;5102481;27;20044;-68
2024/01/02 12:25:26;;;;;;;27.05;5.38;;;10.90;99.90;;;;;;5106700;27;20044;-68
2024/01/02 12:27:53;;;;;;;24.00;5.25;;;10.90;99.90;;;;;;5101364;27;20085;-68
2024/01/02 12:30:33;;;;;;;21.95;4.22;;;10.90;99.90;;;;;;5103187;27;20040;-68
2024/01/02 12:33:34;;;;;;;22.42;5.07;;;10.90;99.90;;;;;;5136239;27;20874;-69
2024/01/02 12:36:06;;;;;;;30.48;5.90;;;10.90;99.90;;;;;;5133721;27;20073;-68
2024/01/02 12:38:52;;;;;;;29.58;5.65;;;10.90;99.90;;;;;;5137348;27;20079;-68
2024/01/02 12:41:33;;;;;;;28.40;4.68;;;10.90;99.90;;;;;;5103553;27;20047;-68
2024/01/02 12:44:02;;;;;;;19.80;4.05;;;10.90;99.90;;;;;;5103890;27;20040;-68
2024/01/02 12:46:57;;;;;;;23.40;4.72;;;10.90;99.90;;;;;;5103366;27;20105;-68
2024/01/02 12:49:27;;;;;;;23.42;4.35;;;10.90;99.90;;;;;;5099955;27;20040;-68
2024/01/02 12:52:02;;;;;;;26.60;4.80;;;10.90;99.90;;;;;;5101676;27;20074;-67
2024/01/02 12:54:30;;;;;;;29.40;5.85;;;10.90;99.90;;;;;;5105067;27;20427;-68
2024/01/02 12:57:02;;;;;;;28.90;6.00;;;10.80;99.90;;;;;;5100114;27;20086;-68
2024/01/02 12:59:29;;;;;;;26.10;5.18;;;11.00;99.90;;;;;;5101262;27;20050;-68
2024/01/02 13:01:57;;;;;;;26.55;6.05;;;10.90;99.90;;;;;;5100106;27;20164;-68